Time;durP1;ratioP1;P1;durP2;ratioP2;P2;SDS_P1;SDS_P2;PMS_P1;PMS_P2;Temp;Humidity;BMP_temperature;BMP_pressure;BME280_temperature;BME280_humidity;BME280_pressure;Samples;Min_cycle;Max_cycle;Signal;HPM_P1;HPM_P2
2024/04/14 00:02:21;;;;;;;540.72;142.13;;;22.10;37.30;;;;;;5458782;26;20042;-63
2024/04/14 00:04:52;;;;;;;536.53;151.27;;;22.10;37.30;;;;;;5423776;26;20025;-63
2024/04/14 00:07:21;;;;;;;521.70;137.27;;;22.00;37.30;;;;;;5447203;26;20333;-65
2024/04/14 00:09:52;;;;;;;716.75;214.90;;;22.00;37.30;;;;;;5441190;26;20026;-64
2024/04/14 00:12:21;;;;;;;566.88;144.15;;;21.90;37.40;;;;;;5455126;25;20002;-64
2024/04/14 00:14:52;;;;;;;540.90;142.43;;;21.90;37.40;;;;;;5445895;25;20010;-63
2024/04/14 00:17:23;;;;;;;525.72;135.77;;;21.80;37.40;;;;;;5460193;26;19998;-63
2024/04/14 00:19:54;;;;;;;747.15;217.13;;;21.80;37.50;;;;;;5439213;25;20013;-64
2024/04/14 00:22:23;;;;;;;544.47;139.52;;;21.80;37.50;;;;;;5458135;26;20009;-64
2024/04/14 00:24:55;;;;;;;525.95;124.25;;;21.80;37.40;;;;;;5456789;26;20114;-63
2024/04/14 00:27:23;;;;;;;569.63;140.15;;;21.70;37.40;;;;;;5435822;26;20026;-63
2024/04/14 00:29:54;;;;;;;630.00;169.57;;;21.70;37.60;;;;;;5474586;25;20683;-62
2024/04/14 00:32:24;;;;;;;556.38;126.78;;;21.70;37.60;;;;;;5455224;26;20005;-63
2024/04/14 00:34:56;;;;;;;532.60;143.30;;;21.70;37.60;;;;;;5420266;26;19993;-63
2024/04/14 00:37:25;;;;;;;532.63;129.38;;;21.60;37.50;;;;;;5450294;25;20013;-65
2024/04/14 00:39:56;;;;;;;560.80;150.65;;;21.60;37.50;;;;;;5444932;26;20365;-63
2024/04/14 00:42:24;;;;;;;574.65;140.23;;;21.50;37.60;;;;;;5420220;26;20018;-63
2024/04/14 00:44:54;;;;;;;526.53;125.50;;;21.50;38.30;;;;;;5450027;26;20010;-63
2024/04/14 00:47:26;;;;;;;533.88;125.68;;;21.50;37.80;;;;;;5446140;26;20014;-64
2024/04/14 00:49:57;;;;;;;571.95;152.77;;;21.50;37.80;;;;;;5441918;25;20099;-64
2024/04/14 00:52:26;;;;;;;552.95;137.52;;;21.50;37.70;;;;;;5452409;26;20010;-63
2024/04/14 00:54:57;;;;;;;532.40;127.78;;;21.50;37.70;;;;;;5457583;26;20078;-65
2024/04/14 00:57:25;;;;;;;527.70;128.07;;;21.50;37.60;;;;;;5453974;26;20010;-65
2024/04/14 00:59:59;;;;;;;542.83;142.82;;;21.50;37.60;;;;;;5433750;26;20063;-63
2024/04/14 01:02:30;;;;;;;548.08;133.10;;;21.50;37.70;;;;;;5446642;26;19998;-64
2024/04/14 01:05:01;;;;;;;596.17;158.20;;;21.50;37.70;;;;;;5442265;26;20006;-63
2024/04/14 01:07:30;;;;;;;520.25;126.40;;;21.50;37.70;;;;;;5444642;26;20002;-64
2024/04/14 01:10:02;;;;;;;519.28;129.27;;;21.50;37.60;;;;;;5436529;26;20026;-65
2024/04/14 01:12:30;;;;;;;591.30;140.90;;;21.50;37.60;;;;;;5443652;26;20009;-64
2024/04/14 01:15:01;;;;;;;518.85;122.18;;;21.50;37.60;;;;;;5446289;26;20002;-63
2024/04/14 01:17:32;;;;;;;562.80;139.90;;;21.40;37.60;;;;;;5447252;26;20002;-64
2024/04/14 01:20:03;;;;;;;536.13;132.63;;;21.40;37.60;;;;;;5455057;26;20018;-64
2024/04/14 01:22:31;;;;;;;550.83;133.15;;;21.40;37.70;;;;;;5446139;26;20017;-64
2024/04/14 01:25:06;;;;;;;536.00;132.45;;;21.40;37.60;;;;;;5447846;26;20013;-64
2024/04/14 01:27:35;;;;;;;651.72;167.35;;;21.40;37.70;;;;;;5409828;26;20452;-64
2024/04/14 01:30:07;;;;;;;555.88;143.15;;;21.40;37.60;;;;;;5439049;26;20006;-64
2024/04/14 01:32:37;;;;;;;532.00;136.75;;;21.40;37.60;;;;;;5488273;25;20608;-64
2024/04/14 01:35:09;;;;;;;528.05;125.43;;;21.40;37.50;;;;;;5485302;25;20056;-64
2024/04/14 01:37:37;;;;;;;670.88;169.15;;;21.40;37.60;;;;;;5439905;25;20069;-63
2024/04/14 01:40:12;;;;;;;532.33;123.63;;;21.40;37.60;;;;;;5484204;25;20001;-64
2024/04/14 01:42:40;;;;;;;538.38;131.45;;;21.40;37.60;;;;;;5479537;26;20014;-63
2024/04/14 01:45:11;;;;;;;542.90;131.73;;;21.40;37.50;;;;;;5447371;26;20082;-63
2024/04/14 01:47:40;;;;;;;763.13;222.95;;;21.40;37.50;;;;;;5438995;25;20008;-64
2024/04/14 01:50:11;;;;;;;551.83;135.52;;;21.40;37.40;;;;;;5479064;25;20013;-63
2024/04/14 01:52:39;;;;;;;524.17;126.40;;;21.40;37.70;;;;;;5479115;25;20427;-63
2024/04/14 01:55:13;;;;;;;606.88;153.13;;;21.40;37.50;;;;;;5486036;25;19994;-64
2024/04/14 01:57:41;;;;;;;745.20;217.02;;;21.30;37.40;;;;;;5456438;26;20037;-64
2024/04/14 02:00:13;;;;;;;519.45;119.10;;;21.30;37.40;;;;;;5490290;25;21081;-63
2024/04/14 02:02:40;;;;;;;563.78;141.52;;;21.30;37.40;;;;;;5487267;25;19997;-63
2024/04/14 02:05:11;;;;;;;534.63;127.03;;;21.30;37.40;;;;;;5484409;25;19998;-64
2024/04/14 02:07:40;;;;;;;681.88;182.15;;;21.30;37.40;;;;;;5466188;25;20016;-63
2024/04/14 02:10:13;;;;;;;547.92;134.40;;;21.20;37.40;;;;;;5475681;25;20012;-63
2024/04/14 02:12:41;;;;;;;527.97;130.50;;;21.20;37.40;;;;;;5479761;25;21055;-64
2024/04/14 02:15:12;;;;;;;525.10;123.43;;;21.20;37.40;;;;;;5484222;25;20012;-65
2024/04/14 02:17:40;;;;;;;700.17;185.80;;;21.20;37.50;;;;;;5471647;25;20013;-64
2024/04/14 02:20:12;;;;;;;568.20;129.23;;;21.20;37.40;;;;;;5478220;25;20070;-64
2024/04/14 02:22:40;;;;;;;541.47;121.10;;;21.20;37.40;;;;;;5474030;25;20013;-64
2024/04/14 02:25:13;;;;;;;540.38;119.95;;;21.20;37.50;;;;;;5479539;25;20472;-64
2024/04/14 02:27:42;;;;;;;719.05;192.50;;;21.10;37.50;;;;;;5407175;25;20001;-63
2024/04/14 02:30:13;;;;;;;576.63;131.13;;;21.10;37.40;;;;;;5470892;25;20475;-63
2024/04/14 02:32:41;;;;;;;518.80;113.57;;;21.10;37.40;;;;;;5484963;25;20009;-64
2024/04/14 02:35:12;;;;;;;591.25;134.30;;;21.10;37.50;;;;;;5470695;25;20001;-64
2024/04/14 02:37:40;;;;;;;690.13;182.85;;;21.10;37.50;;;;;;5470124;25;20013;-64
2024/04/14 02:40:14;;;;;;;524.25;114.15;;;21.00;37.50;;;;;;5473066;25;20010;-64
2024/04/14 02:42:41;;;;;;;547.80;119.53;;;21.00;37.60;;;;;;5477062;25;20074;-64
2024/04/14 02:45:12;;;;;;;542.22;119.78;;;21.00;37.70;;;;;;5471236;25;20404;-63
2024/04/14 02:47:40;;;;;;;710.33;189.75;;;21.00;37.60;;;;;;5467926;25;20014;-64
2024/04/14 02:50:11;;;;;;;534.00;116.43;;;21.10;37.60;;;;;;5481141;25;20001;-63
2024/04/14 02:52:39;;;;;;;522.65;113.85;;;21.00;37.40;;;;;;5480224;25;20083;-64
2024/04/14 02:55:12;;;;;;;584.80;135.20;;;21.00;37.40;;;;;;5414269;26;20090;-64
2024/04/14 02:57:41;;;;;;;682.47;178.88;;;21.00;37.40;;;;;;5471033;25;20135;-65
2024/04/14 03:00:14;;;;;;;540.35;119.25;;;20.90;37.40;;;;;;5475154;25;20006;-64
2024/04/14 03:02:42;;;;;;;546.10;119.22;;;20.90;37.40;;;;;;5434084;26;20007;-63
2024/04/14 03:05:13;;;;;;;516.65;112.60;;;20.90;37.50;;;;;;5439078;26;20002;-65
2024/04/14 03:07:41;;;;;;;689.50;177.57;;;20.90;37.40;;;;;;5432546;26;20494;-64
2024/04/14 03:10:15;;;;;;;529.67;113.53;;;20.90;37.40;;;;;;5443113;26;20002;-64
2024/04/14 03:12:44;;;;;;;525.70;113.75;;;20.80;37.40;;;;;;5437734;26;20356;-64
2024/04/14 03:15:15;;;;;;;527.58;113.22;;;20.80;38.10;;;;;;5445806;26;20013;-65
2024/04/14 03:17:43;;;;;;;697.58;186.48;;;20.80;37.40;;;;;;5475439;25;20019;-65
2024/04/14 03:20:14;;;;;;;554.15;121.95;;;20.70;37.40;;;;;;5469030;25;20081;-64
2024/04/14 03:22:43;;;;;;;550.25;170.55;;;20.70;37.40;;;;;;5409321;26;20001;-64
2024/04/14 03:25:17;;;;;;;605.28;178.98;;;20.70;37.70;;;;;;5472212;26;20009;-66
2024/04/14 03:27:45;;;;;;;714.50;225.02;;;20.60;37.80;;;;;;5434434;25;20030;-64
2024/04/14 03:30:17;;;;;;;564.45;169.57;;;20.60;37.40;;;;;;5437171;25;20002;-64
2024/04/14 03:32:45;;;;;;;530.50;165.15;;;20.60;37.50;;;;;;5487262;25;20030;-65
2024/04/14 03:35:16;;;;;;;537.90;122.68;;;20.50;37.50;;;;;;5480492;25;20475;-66
2024/04/14 03:37:47;;;;;;;725.72;216.63;;;20.50;37.40;;;;;;5465516;25;20367;-65
2024/04/14 03:40:21;;;;;;;516.55;116.82;;;20.50;37.50;;;;;;5472174;25;20013;-67
2024/04/14 03:42:52;;;;;;;552.30;155.68;;;20.40;37.50;;;;;;5447410;26;20010;-65
2024/04/14 03:45:24;;;;;;;545.92;121.38;;;20.40;37.60;;;;;;5477275;25;20013;-64
2024/04/14 03:47:55;;;;;;;662.20;178.45;;;20.40;37.60;;;;;;5458533;25;20841;-64
2024/04/14 03:50:23;;;;;;;553.15;130.18;;;20.30;37.70;;;;;;5481717;25;20001;-65
2024/04/14 03:52:54;;;;;;;514.08;115.60;;;20.30;37.70;;;;;;5454810;25;20016;-65
2024/04/14 03:55:25;;;;;;;539.10;124.75;;;20.30;37.70;;;;;;5480498;25;20009;-64
2024/04/14 03:57:56;;;;;;;576.88;151.85;;;20.30;37.70;;;;;;5432912;26;20010;-63
2024/04/14 04:00:27;;;;;;;529.50;122.80;;;20.30;37.70;;;;;;5477330;25;20020;-64
2024/04/14 04:02:55;;;;;;;525.13;120.28;;;20.30;37.80;;;;;;5486238;25;20006;-65
2024/04/14 04:05:25;;;;;;;566.38;134.30;;;20.30;37.70;;;;;;5476262;25;20013;-64
2024/04/14 04:07:53;;;;;;;548.80;135.27;;;20.30;37.60;;;;;;5467566;25;20894;-64
2024/04/14 04:10:28;;;;;;;535.28;124.07;;;20.30;37.60;;;;;;5454025;26;19997;-64
2024/04/14 04:12:59;;;;;;;519.40;118.85;;;20.30;37.60;;;;;;5469666;25;20012;-64
2024/04/14 04:15:30;;;;;;;595.28;144.85;;;20.30;37.60;;;;;;5446427;26;20019;-63
2024/04/14 04:18:17;;;;;;;538.20;131.00;;;20.30;37.60;;;;;;5488716;25;20462;-63
2024/04/14 04:20:55;;;;;;;524.28;121.88;;;20.20;37.60;;;;;;5417569;26;20003;-64
2024/04/14 04:23:24;;;;;;;526.35;116.18;;;20.20;37.70;;;;;;5443390;26;20250;-65
2024/04/14 04:25:58;;;;;;;594.58;155.60;;;20.20;37.60;;;;;;5437473;26;20537;-64
2024/04/14 04:28:27;;;;;;;576.65;133.65;;;20.20;37.60;;;;;;5450776;26;20010;-64
2024/04/14 04:30:59;;;;;;;540.15;122.88;;;20.20;37.70;;;;;;5451684;26;20026;-64
2024/04/14 04:33:27;;;;;;;611.10;148.00;;;20.10;37.60;;;;;;5443709;26;20491;-64
2024/04/14 04:35:59;;;;;;;553.55;135.57;;;20.10;37.90;;;;;;5435224;26;20090;-66
2024/04/14 04:38:27;;;;;;;554.05;118.57;;;20.10;37.70;;;;;;5451326;26;20009;-65
2024/04/14 04:41:01;;;;;;;540.00;112.15;;;20.10;37.60;;;;;;5476001;25;20797;-63
2024/04/14 04:43:29;;;;;;;521.65;109.72;;;20.10;37.60;;;;;;5473505;25;20002;-64
2024/04/14 04:46:00;;;;;;;548.65;133.23;;;20.20;37.70;;;;;;5477754;25;20005;-64
2024/04/14 04:48:28;;;;;;;524.90;112.18;;;20.20;37.70;;;;;;5472789;25;20023;-65
2024/04/14 04:50:59;;;;;;;528.95;112.43;;;20.20;37.60;;;;;;5477664;25;20010;-64
2024/04/14 04:53:27;;;;;;;569.75;124.80;;;20.20;37.60;;;;;;5449845;26;20015;-64
2024/04/14 04:56:00;;;;;;;523.95;123.30;;;20.20;37.60;;;;;;5438024;26;20039;-64
2024/04/14 04:58:28;;;;;;;595.40;133.05;;;20.20;37.60;;;;;;5448992;26;20017;-63
2024/04/14 05:01:00;;;;;;;523.58;110.25;;;20.30;37.80;;;;;;5445434;26;20705;-64
2024/04/14 05:03:28;;;;;;;545.00;116.80;;;20.30;37.60;;;;;;5445005;26;20516;-63
2024/04/14 05:06:04;;;;;;;556.60;135.27;;;20.30;37.60;;;;;;5438687;26;20006;-63
2024/04/14 05:08:32;;;;;;;565.78;122.30;;;20.40;37.60;;;;;;5443672;26;20190;-64
2024/04/14 05:11:06;;;;;;;540.40;115.65;;;20.40;37.50;;;;;;5440932;26;20517;-65
2024/04/14 05:13:34;;;;;;;562.65;125.28;;;20.40;37.50;;;;;;5445930;26;20006;-63
2024/04/14 05:16:08;;;;;;;533.65;115.88;;;20.40;37.50;;;;;;5433866;26;20006;-66
2024/04/14 05:18:36;;;;;;;534.58;118.25;;;20.40;37.50;;;;;;5432890;26;20022;-64
2024/04/14 05:21:08;;;;;;;554.72;120.45;;;20.40;37.50;;;;;;5442608;26;20021;-65
2024/04/14 05:23:37;;;;;;;641.15;152.35;;;20.50;37.70;;;;;;5470544;25;20009;-65
2024/04/14 05:26:11;;;;;;;538.85;116.10;;;20.50;37.40;;;;;;5481523;25;20010;-66
2024/04/14 05:28:39;;;;;;;538.95;117.10;;;20.50;37.40;;;;;;5456923;25;19999;-64
2024/04/14 05:31:09;;;;;;;564.13;122.22;;;20.50;37.40;;;;;;5471032;25;20513;-64
2024/04/14 05:33:38;;;;;;;644.13;151.85;;;20.50;37.30;;;;;;5453935;25;20102;-65
2024/04/14 05:36:10;;;;;;;556.90;119.25;;;20.60;37.40;;;;;;5465712;25;20010;-66
2024/04/14 05:38:38;;;;;;;586.13;131.90;;;20.60;37.30;;;;;;5469638;25;20024;-63
2024/04/14 05:41:11;;;;;;;543.85;118.15;;;20.70;37.30;;;;;;5467355;25;20468;-63
2024/04/14 05:43:39;;;;;;;764.95;200.57;;;20.70;37.30;;;;;;5446914;25;20017;-63
2024/04/14 05:46:10;;;;;;;581.47;133.07;;;20.80;37.30;;;;;;5475662;25;20044;-63
2024/04/14 05:48:38;;;;;;;551.70;124.70;;;20.80;37.30;;;;;;5456959;25;20024;-62
2024/04/14 05:51:09;;;;;;;575.42;129.80;;;20.90;37.60;;;;;;5465803;25;20686;-63
2024/04/14 05:53:39;;;;;;;684.10;171.38;;;21.00;37.30;;;;;;5429854;25;20051;-64
2024/04/14 05:56:14;;;;;;;541.78;118.38;;;21.00;37.20;;;;;;5470671;25;20005;-65
2024/04/14 05:58:42;;;;;;;541.88;118.40;;;21.10;37.20;;;;;;5464202;25;20006;-63
2024/04/14 06:01:13;;;;;;;541.58;119.35;;;21.10;37.20;;;;;;5464056;25;20870;-63
2024/04/14 06:03:41;;;;;;;713.65;185.60;;;21.10;37.20;;;;;;5448283;25;20009;-63
2024/04/14 06:06:12;;;;;;;548.10;124.75;;;21.20;37.20;;;;;;5472590;25;20002;-63
2024/04/14 06:08:40;;;;;;;567.75;130.07;;;21.30;37.20;;;;;;5475849;25;20481;-64
2024/04/14 06:11:13;;;;;;;544.03;124.72;;;21.40;37.20;;;;;;5477945;25;20009;-63
2024/04/14 06:13:41;;;;;;;784.70;210.88;;;21.40;37.10;;;;;;5457559;25;20014;-67
2024/04/14 06:16:14;;;;;;;555.88;155.05;;;21.50;37.10;;;;;;5470392;25;19997;-63
2024/04/14 06:18:42;;;;;;;558.08;129.18;;;21.60;37.10;;;;;;5477826;25;20030;-63
2024/04/14 06:21:13;;;;;;;549.85;124.72;;;21.60;37.00;;;;;;5477014;25;20013;-63
2024/04/14 06:23:41;;;;;;;725.60;197.80;;;21.70;37.00;;;;;;5453904;25;20117;-64
2024/04/14 06:26:14;;;;;;;541.92;125.10;;;21.80;37.00;;;;;;5477604;25;20006;-62
2024/04/14 06:28:42;;;;;;;562.40;130.65;;;21.90;36.90;;;;;;5444402;25;20674;-62
2024/04/14 06:31:13;;;;;;;528.55;120.95;;;22.00;36.90;;;;;;5468846;25;20256;-62
2024/04/14 06:33:41;;;;;;;718.65;208.07;;;22.10;36.90;;;;;;5468205;25;20981;-62
2024/04/14 06:36:12;;;;;;;535.72;128.55;;;22.20;36.90;;;;;;5469418;25;20359;-63
2024/04/14 06:38:44;;;;;;;565.80;136.68;;;22.30;36.80;;;;;;5441107;25;20105;-63
2024/04/14 06:41:17;;;;;;;539.35;127.18;;;22.50;36.70;;;;;;5460496;25;20331;-63
2024/04/14 06:43:45;;;;;;;715.95;205.13;;;22.60;36.70;;;;;;5462425;25;20028;-63
2024/04/14 06:46:16;;;;;;;575.60;139.60;;;22.70;36.60;;;;;;5469246;25;20017;-62
2024/04/14 06:48:45;;;;;;;589.42;152.00;;;22.80;36.50;;;;;;5460197;25;20006;-63
2024/04/14 06:51:16;;;;;;;540.60;135.65;;;22.90;36.50;;;;;;5460743;25;20002;-62
2024/04/14 06:53:44;;;;;;;720.55;216.55;;;23.10;36.50;;;;;;5454801;25;20006;-62
2024/04/14 06:56:17;;;;;;;559.53;140.82;;;23.20;36.40;;;;;;5469933;25;19997;-62
2024/04/14 06:58:46;;;;;;;544.47;137.25;;;23.30;36.20;;;;;;5462276;25;20504;-62
2024/04/14 07:01:17;;;;;;;570.47;142.30;;;23.40;36.20;;;;;;5481469;25;20770;-62
2024/04/14 07:03:45;;;;;;;739.45;226.20;;;23.50;36.10;;;;;;5468822;25;20345;-62
2024/04/14 07:06:16;;;;;;;556.08;142.63;;;23.50;36.00;;;;;;5471703;25;20010;-63
2024/04/14 07:08:44;;;;;;;585.22;148.13;;;23.70;36.00;;;;;;5470800;25;20041;-63
2024/04/14 07:11:18;;;;;;;553.45;143.00;;;23.80;36.00;;;;;;5461783;25;20870;-62
2024/04/14 07:13:47;;;;;;;694.33;207.10;;;23.90;36.00;;;;;;5460525;25;20001;-66
2024/04/14 07:16:17;;;;;;;613.17;167.60;;;24.30;36.50;;;;;;5439449;25;20010;-66
2024/04/14 07:18:46;;;;;;;533.05;151.65;;;25.10;36.50;;;;;;5448169;26;19998;-67
2024/04/14 07:21:17;;;;;;;572.95;176.05;;;26.80;36.70;;;;;;5455006;26;19997;-66
2024/04/14 07:23:45;;;;;;;723.67;265.48;;;28.80;35.90;;;;;;5446760;26;20435;-69
2024/04/14 07:26:19;;;;;;;557.33;209.63;;;30.60;34.90;;;;;;5436220;26;20038;-67
2024/04/14 07:28:47;;;;;;;556.75;231.32;;;32.30;33.90;;;;;;5456840;26;20057;-65
2024/04/14 07:31:18;;;;;;;549.80;247.43;;;33.80;33.20;;;;;;5465134;26;20097;-65
2024/04/14 07:33:51;;;;;;;750.10;360.05;;;35.10;32.20;;;;;;5448157;26;20343;-66
2024/04/14 07:36:22;;;;;;;569.53;299.23;;;36.20;31.50;;;;;;5458987;26;20006;-65
2024/04/14 07:38:50;;;;;;;613.95;336.88;;;37.10;30.60;;;;;;5457507;26;19999;-64
2024/04/14 07:41:24;;;;;;;598.92;344.15;;;37.60;30.00;;;;;;5450664;25;20012;-69
2024/04/14 07:43:53;;;;;;;648.70;386.25;;;38.20;29.80;;;;;;5436243;26;19998;-65
2024/04/14 07:46:27;;;;;;;592.40;373.10;;;39.00;29.60;;;;;;5452108;26;20002;-66
2024/04/14 07:48:55;;;;;;;600.28;383.33;;;39.20;29.00;;;;;;5455846;26;20074;-66
2024/04/14 07:51:26;;;;;;;624.15;404.23;;;39.50;29.20;;;;;;5420114;26;20008;-67
2024/04/14 07:53:54;;;;;;;625.75;421.52;;;39.70;29.00;;;;;;5439118;25;20821;-65
2024/04/14 07:56:28;;;;;;;586.05;407.77;;;39.70;29.20;;;;;;5452297;26;20012;-66
2024/04/14 07:58:56;;;;;;;605.67;415.45;;;39.90;29.50;;;;;;5448052;25;20010;-65
2024/04/14 08:01:27;;;;;;;611.88;429.73;;;40.50;28.80;;;;;;5444250;26;19998;-64
2024/04/14 08:03:55;;;;;;;618.25;450.63;;;41.30;28.20;;;;;;5429841;26;21340;-67
2024/04/14 08:06:29;;;;;;;611.88;446.95;;;42.10;28.00;;;;;;5440100;25;19998;-65
2024/04/14 08:08:57;;;;;;;595.80;447.23;;;42.50;26.50;;;;;;5447383;26;20005;-65
2024/04/14 08:11:31;;;;;;;595.90;444.30;;;42.40;26.00;;;;;;5457352;26;20834;-63
2024/04/14 08:14:00;;;;;;;594.28;448.30;;;42.10;25.60;;;;;;5442046;26;20010;-62
2024/04/14 08:16:30;;;;;;;639.65;462.60;;;41.90;25.50;;;;;;5414248;26;20011;-64
2024/04/14 08:18:59;;;;;;;601.97;458.90;;;41.90;25.90;;;;;;5457514;26;20018;-65
2024/04/14 08:21:30;;;;;;;595.08;466.85;;;42.50;26.10;;;;;;5454966;26;20029;-63
2024/04/14 08:24:02;;;;;;;595.25;471.48;;;43.20;26.00;;;;;;5458455;26;20052;-64
2024/04/14 08:26:35;;;;;;;617.38;494.38;;;44.20;25.80;;;;;;5464348;26;19998;-63
2024/04/14 08:29:04;;;;;;;597.75;500.10;;;44.70;25.30;;;;;;5471489;26;19998;-63
2024/04/14 08:31:35;;;;;;;607.85;522.30;;;45.50;25.30;;;;;;5466766;26;20476;-63
2024/04/14 08:34:03;;;;;;;603.92;524.42;;;46.10;24.90;;;;;;5457266;26;20002;-63
2024/04/14 08:36:38;;;;;;;613.33;537.10;;;46.60;24.70;;;;;;5434809;26;20003;-64
2024/04/14 08:39:06;;;;;;;626.33;556.55;;;47.20;24.60;;;;;;5468700;25;20013;-65
2024/04/14 08:41:44;;;;;;;658.85;576.17;;;47.70;24.20;;;;;;5459369;25;20009;-65
2024/04/14 08:44:14;;;;;;;628.88;561.05;;;47.90;23.90;;;;;;5461898;26;20013;-65
2024/04/14 08:46:46;;;;;;;648.08;576.35;;;47.80;23.60;;;;;;5480517;25;20002;-65
2024/04/14 08:49:16;;;;;;;657.78;589.10;;;48.10;23.80;;;;;;5467162;26;20020;-66
2024/04/14 08:51:50;;;;;;;823.92;644.25;;;48.10;23.30;;;;;;5446899;26;20704;-66
2024/04/14 08:54:19;;;;;;;664.50;590.17;;;48.10;23.40;;;;;;5466870;25;20002;-66
2024/04/14 08:56:59;;;;;;;674.53;603.67;;;48.10;23.30;;;;;;5456002;25;20006;-65
2024/04/14 08:59:27;;;;;;;671.80;593.28;;;48.30;23.20;;;;;;5459491;26;20071;-64
2024/04/14 09:02:00;;;;;;;658.05;589.28;;;48.70;23.00;;;;;;5446573;26;20003;-67
2024/04/14 09:04:29;;;;;;;644.00;576.08;;;48.50;22.70;;;;;;5461999;25;20006;-64
2024/04/14 09:07:00;;;;;;;650.25;580.88;;;47.90;23.00;;;;;;5424358;26;20316;-66
2024/04/14 09:09:29;;;;;;;678.95;604.85;;;47.70;22.90;;;;;;5458085;26;20343;-66
2024/04/14 09:12:03;;;;;;;664.00;594.72;;;47.90;23.00;;;;;;5455070;25;20021;-65
2024/04/14 09:14:38;;;;;;;663.90;592.58;;;48.50;22.80;;;;;;5467307;25;19997;-65
2024/04/14 09:17:14;;;;;;;656.92;588.03;;;49.20;22.70;;;;;;5462055;25;20406;-67
2024/04/14 09:19:48;;;;;;;817.35;659.10;;;49.50;22.20;;;;;;5445650;25;20451;-65
2024/04/14 09:22:19;;;;;;;687.58;614.67;;;50.00;22.20;;;;;;5454042;25;20045;-65
2024/04/14 09:24:48;;;;;;;675.25;605.22;;;50.70;22.10;;;;;;5454473;25;20418;-65
2024/04/14 09:27:23;;;;;;;689.17;618.03;;;51.00;21.70;;;;;;5458456;26;20006;-65
2024/04/14 09:29:53;;;;;;;780.58;677.00;;;51.30;21.50;;;;;;5413906;26;20518;-65
2024/04/14 09:32:25;;;;;;;699.75;628.85;;;51.30;21.40;;;;;;5460631;26;20017;-66
2024/04/14 09:34:54;;;;;;;723.03;647.97;;;51.10;21.30;;;;;;5458951;25;20026;-66
2024/04/14 09:37:26;;;;;;;690.20;619.20;;;50.90;21.30;;;;;;5415667;25;20501;-65
2024/04/14 09:39:55;;;;;;;698.75;626.75;;;50.50;21.20;;;;;;5442252;26;20006;-65
2024/04/14 09:42:29;;;;;;;685.35;614.88;;;50.30;21.20;;;;;;5456670;25;19998;-65
2024/04/14 09:44:58;;;;;;;661.38;590.47;;;49.70;21.00;;;;;;5442126;26;20352;-62
2024/04/14 09:47:30;;;;;;;676.42;603.55;;;49.50;21.20;;;;;;5443918;25;19995;-64
2024/04/14 09:49:59;;;;;;;685.03;609.40;;;49.80;21.20;;;;;;5443752;26;20016;-63
2024/04/14 09:52:33;;;;;;;662.60;593.13;;;50.10;21.10;;;;;;5452697;25;20010;-62
2024/04/14 09:55:03;;;;;;;647.13;579.13;;;50.40;20.90;;;;;;5453864;26;20577;-64
2024/04/14 09:57:41;;;;;;;674.08;601.05;;;50.40;20.60;;;;;;5446075;26;20081;-63
2024/04/14 10:00:10;;;;;;;657.33;587.00;;;49.80;20.30;;;;;;5449166;26;20514;-64
2024/04/14 10:02:46;;;;;;;683.33;610.10;;;49.70;20.50;;;;;;5442639;26;20391;-63
2024/04/14 10:05:16;;;;;;;708.28;632.63;;;49.80;20.50;;;;;;5435102;26;20030;-62
2024/04/14 10:07:47;;;;;;;810.95;662.90;;;50.20;20.50;;;;;;5445209;26;20003;-62
2024/04/14 10:10:16;;;;;;;657.33;588.95;;;50.60;20.40;;;;;;5461439;26;20012;-62
2024/04/14 10:12:53;;;;;;;670.55;599.33;;;50.60;20.10;;;;;;5428826;26;21449;-62
2024/04/14 10:15:24;;;;;;;662.08;591.25;;;50.60;20.00;;;;;;5456538;26;20009;-62
2024/04/14 10:18:12;;;;;;;721.80;630.67;;;50.50;19.90;;;;;;5450131;26;20021;-62
2024/04/14 10:20:43;;;;;;;652.25;585.25;;;50.50;19.80;;;;;;5456190;26;20025;-62
2024/04/14 10:23:22;;;;;;;672.58;598.05;;;50.40;19.70;;;;;;5457303;25;20009;-63
2024/04/14 10:25:52;;;;;;;842.45;673.25;;;50.50;19.80;;;;;;5437450;25;20013;-62
2024/04/14 10:28:26;;;;;;;672.88;600.28;;;50.60;19.60;;;;;;5449216;26;20002;-62
2024/04/14 10:31:01;;;;;;;639.33;571.80;;;50.40;19.40;;;;;;5446019;26;20020;-63
2024/04/14 10:33:33;;;;;;;665.22;593.33;;;49.80;19.50;;;;;;5451492;26;20002;-61
2024/04/14 10:36:03;;;;;;;654.15;585.67;;;49.50;19.60;;;;;;5454330;26;20082;-63
2024/04/14 10:38:36;;;;;;;666.13;593.45;;;49.30;19.50;;;;;;5444475;25;20006;-61
2024/04/14 10:41:04;;;;;;;669.08;596.78;;;49.20;19.50;;;;;;5450661;26;19998;-61
2024/04/14 10:43:39;;;;;;;654.63;585.13;;;49.30;19.50;;;;;;5459019;25;20009;-66
2024/04/14 10:46:08;;;;;;;662.17;591.50;;;49.50;19.40;;;;;;5458478;25;19998;-62
2024/04/14 10:48:47;;;;;;;662.65;592.38;;;49.70;19.20;;;;;;5450132;26;20444;-61
2024/04/14 10:51:19;;;;;;;669.55;596.95;;;49.70;19.10;;;;;;5450255;26;20011;-62
2024/04/14 10:53:53;;;;;;;807.38;643.70;;;49.50;19.00;;;;;;5416495;26;20298;-61
2024/04/14 10:56:21;;;;;;;654.88;578.05;;;49.00;18.80;;;;;;5452621;26;20019;-62
2024/04/14 10:58:56;;;;;;;639.25;558.17;;;48.50;18.80;;;;;;5459128;26;20777;-62
2024/04/14 11:01:24;;;;;;;;;;;47.80;18.90;;;;;;5463776;25;20531;-66
2024/04/14 11:03:55;;;;;;;632.70;537.60;;;47.20;19.20;;;;;;5357945;26;2358196;-65
2024/04/14 11:06:24;;;;;;;621.17;503.35;;;46.30;19.30;;;;;;5303868;25;128588;-65
2024/04/14 11:08:58;;;;;;;644.10;492.88;;;45.10;19.50;;;;;;5452691;26;20567;-65
2024/04/14 11:11:26;;;;;;;617.70;464.25;;;44.20;19.80;;;;;;5456927;26;20002;-67
2024/04/14 11:14:00;;;;;;;675.17;481.75;;;43.10;20.10;;;;;;5450448;25;20810;-66
2024/04/14 11:16:28;;;;;;;605.42;425.83;;;41.90;20.40;;;;;;5448306;26;20141;-66
2024/04/14 11:18:59;;;;;;;659.40;438.88;;;40.60;20.80;;;;;;5456388;26;19999;-69
2024/04/14 11:21:28;;;;;;;610.13;416.70;;;39.50;21.30;;;;;;5435834;26;20014;-71
2024/04/14 11:23:59;;;;;;;670.15;440.25;;;38.30;21.70;;;;;;5447282;26;20762;-67
2024/04/14 11:26:27;;;;;;;600.22;373.77;;;37.50;22.10;;;;;;5453023;25;20127;-70
2024/04/14 11:29:01;;;;;;;622.85;374.60;;;36.80;22.40;;;;;;5419212;26;20017;-68
2024/04/14 11:31:31;;;;;;;599.70;353.83;;;36.30;22.70;;;;;;5446349;25;20010;-68
2024/04/14 11:34:02;;;;;;;612.92;368.50;;;35.80;22.90;;;;;;5441284;26;20006;-68
2024/04/14 11:36:32;;;;;;;595.20;345.08;;;35.40;23.10;;;;;;5454340;26;20445;-67
2024/04/14 11:39:04;;;;;;;592.45;334.15;;;35.10;23.30;;;;;;5446915;26;20080;-67
2024/04/14 11:41:32;;;;;;;584.20;347.63;;;34.80;23.50;;;;;;5449069;26;20002;-66
2024/04/14 11:44:07;;;;;;;616.97;337.50;;;34.60;23.60;;;;;;5419638;26;20003;-68
2024/04/14 11:46:36;;;;;;;587.70;328.00;;;34.40;23.70;;;;;;5422208;26;20006;-69
2024/04/14 11:49:06;;;;;;;578.65;317.42;;;34.30;23.80;;;;;;5421003;26;20021;-69
2024/04/14 11:51:39;;;;;;;777.00;375.50;;;34.10;23.80;;;;;;5439493;26;20017;-67
2024/04/14 11:54:12;;;;;;;576.92;307.55;;;34.00;23.90;;;;;;5416679;26;20072;-69
2024/04/14 11:56:40;;;;;;;656.45;339.45;;;34.00;24.00;;;;;;5458844;25;20016;-66
2024/04/14 11:59:14;;;;;;;601.75;328.70;;;34.00;24.20;;;;;;5450939;26;20027;-68
2024/04/14 12:01:42;;;;;;;731.33;358.13;;;33.80;24.00;;;;;;5447573;25;20017;-68
2024/04/14 12:04:15;;;;;;;572.28;297.38;;;33.80;24.10;;;;;;5461826;25;23507;-69
2024/04/14 12:06:44;;;;;;;594.83;306.08;;;33.70;24.20;;;;;;5416565;26;20003;-68
2024/04/14 12:09:16;;;;;;;585.65;300.35;;;33.70;24.30;;;;;;5410864;26;19998;-69
2024/04/14 12:11:45;;;;;;;736.15;361.83;;;33.60;24.30;;;;;;5447638;25;20481;-68
2024/04/14 12:14:19;;;;;;;577.28;291.30;;;33.60;24.40;;;;;;5457342;26;20006;-68
2024/04/14 12:16:47;;;;;;;595.92;301.58;;;33.50;24.60;;;;;;5409427;26;20010;-67
2024/04/14 12:19:18;;;;;;;575.45;292.45;;;33.50;24.40;;;;;;5421689;26;20006;-69
2024/04/14 12:21:47;;;;;;;776.55;368.13;;;33.50;24.50;;;;;;5444312;26;20018;-67
2024/04/14 12:24:19;;;;;;;576.83;293.98;;;33.50;24.60;;;;;;5460004;25;20378;-69
2024/04/14 12:26:47;;;;;;;583.85;302.00;;;33.60;24.60;;;;;;5428517;26;20083;-68